Time;durP1;ratioP1;P1;durP2;ratioP2;P2;SDS_P1;SDS_P2;PMS_P1;PMS_P2;Temp;Humidity;BMP_temperature;BMP_pressure;BME280_temperature;BME280_humidity;BME280_pressure;Samples;Min_cycle;Max_cycle;Signal;HPM_P1;HPM_P2
2021/08/16 00:00:48;;;;;;;5.60;1.52;;;;;;;;;;4973459;28;20510;-77
2021/08/16 00:03:14;;;;;;;3.22;1.27;;;;;;;;;;4972799;28;20118;-76
2021/08/16 00:05:40;;;;;;;4.05;1.42;;;;;;;;;;4971541;28;20027;-77
2021/08/16 00:08:07;;;;;;;4.65;1.58;;;;;;;;;;4971591;28;20078;-77
2021/08/16 00:10:33;;;;;;;4.45;1.65;;;;;;;;;;4973072;28;20033;-77
2021/08/16 00:12:59;;;;;;;5.70;1.65;;;;;;;;;;4972436;28;20030;-76
2021/08/16 00:15:25;;;;;;;4.47;1.20;;;;;;;;;;4972917;28;20089;-76
2021/08/16 00:17:51;;;;;;;6.30;1.88;;;;;;;;;;4973107;28;20031;-76
2021/08/16 00:20:17;;;;;;;6.20;1.52;;;;;;;;;;4973304;28;20023;-76
2021/08/16 00:22:43;;;;;;;5.82;1.70;;;;;;;;;;4972855;28;20023;-76
2021/08/16 00:25:09;;;;;;;4.30;1.42;;;;;;;;;;4972552;28;20038;-77
2021/08/16 00:27:35;;;;;;;4.28;1.15;;;;;;;;;;4972790;28;20081;-76
2021/08/16 00:30:03;;;;;;;3.90;1.70;;;;;;;;;;4971898;28;20113;-77
2021/08/16 00:32:29;;;;;;;4.75;1.27;;;;;;;;;;4972730;28;20031;-76
2021/08/16 00:34:55;;;;;;;4.15;1.25;;;;;;;;;;4971089;28;20077;-77
2021/08/16 00:37:21;;;;;;;4.78;1.08;;;;;;;;;;4971378;28;20026;-76
2021/08/16 00:39:47;;;;;;;4.70;1.48;;;;;;;;;;4971695;28;20045;-76
2021/08/16 00:42:13;;;;;;;4.82;1.45;;;;;;;;;;4970784;28;20037;-76
2021/08/16 00:44:39;;;;;;;5.30;1.33;;;;;;;;;;4972533;28;20073;-77
2021/08/16 00:47:05;;;;;;;4.03;1.70;;;;;;;;;;4972304;28;20031;-76
2021/08/16 00:49:32;;;;;;;4.68;1.80;;;;;;;;;;4972065;28;20190;-76
2021/08/16 00:51:58;;;;;;;5.00;1.85;;;;;;;;;;4971742;28;20525;-76
2021/08/16 00:54:24;;;;;;;2.92;1.05;;;;;;;;;;4972390;28;20140;-76
2021/08/16 00:56:50;;;;;;;5.60;1.65;;;;;;;;;;4971387;28;20118;-76
2021/08/16 00:59:17;;;;;;;4.60;1.17;;;;;;;;;;4972405;28;20054;-76
2021/08/16 01:01:43;;;;;;;4.95;1.50;;;;;;;;;;4971023;28;20019;-76
2021/08/16 01:04:10;;;;;;;5.13;1.60;;;;;;;;;;4972028;28;20038;-76
2021/08/16 01:06:36;;;;;;;3.05;1.15;;;;;;;;;;4972313;28;20059;-77
2021/08/16 01:09:02;;;;;;;3.58;0.90;;;;;;;;;;4971954;28;20035;-76
2021/08/16 01:11:28;;;;;;;4.68;1.92;;;;;;;;;;4971764;28;20027;-76
2021/08/16 01:13:54;;;;;;;3.53;1.45;;;;;;;;;;4972230;28;20034;-76
2021/08/16 01:16:21;;;;;;;3.88;1.30;;;;;;;;;;4971221;28;20034;-76
2021/08/16 01:18:47;;;;;;;3.90;1.25;;;;;;;;;;4974586;28;20023;-76
2021/08/16 01:21:16;;;;;;;4.22;1.60;;;;;;;;;;4975710;28;20154;-76
2021/08/16 01:23:43;;;;;;;3.47;0.90;;;;;;;;;;4976006;28;20062;-76
2021/08/16 01:26:09;;;;;;;5.68;1.85;;;;;;;;;;4975742;28;20023;-77
2021/08/16 01:28:35;;;;;;;3.30;1.15;;;;;;;;;;4976014;28;20027;-77
2021/08/16 01:31:03;;;;;;;5.53;1.30;;;;;;;;;;4975699;28;20070;-77
2021/08/16 01:33:29;;;;;;;6.00;1.88;;;;;;;;;;4975967;28;20030;-77
2021/08/16 01:35:55;;;;;;;3.65;1.17;;;;;;;;;;4974354;28;20026;-76
2021/08/16 01:38:25;;;;;;;5.82;2.08;;;;;;;;;;4975903;28;20410;-77
2021/08/16 01:40:51;;;;;;;3.80;1.25;;;;;;;;;;4975628;28;20031;-77
2021/08/16 01:43:17;;;;;;;3.45;1.23;;;;;;;;;;4974427;28;20462;-76
2021/08/16 01:45:43;;;;;;;4.15;1.20;;;;;;;;;;4975292;28;20031;-77
2021/08/16 01:48:12;;;;;;;3.83;1.33;;;;;;;;;;4975457;28;20364;-77
2021/08/16 01:50:38;;;;;;;3.78;1.38;;;;;;;;;;4975699;28;20027;-77
2021/08/16 01:53:04;;;;;;;3.40;1.23;;;;;;;;;;4975394;28;20401;-76
2021/08/16 01:55:30;;;;;;;3.65;1.08;;;;;;;;;;4975589;28;20034;-76
2021/08/16 01:57:56;;;;;;;6.13;1.45;;;;;;;;;;4973956;28;20506;-76
2021/08/16 02:00:22;;;;;;;3.30;1.10;;;;;;;;;;4974226;28;20027;-76
2021/08/16 02:02:48;;;;;;;3.58;1.25;;;;;;;;;;4975766;28;20026;-76
2021/08/16 02:05:14;;;;;;;3.45;1.23;;;;;;;;;;4973874;28;20383;-77
2021/08/16 02:07:40;;;;;;;3.33;1.08;;;;;;;;;;4975363;28;20035;-76
2021/08/16 02:10:07;;;;;;;5.22;1.27;;;;;;;;;;4975033;28;20038;-76
2021/08/16 02:12:33;;;;;;;5.07;1.70;;;;;;;;;;4974026;28;20030;-75
2021/08/16 02:14:59;;;;;;;5.85;1.15;;;;;;;;;;4974699;28;20022;-76
2021/08/16 02:17:25;;;;;;;4.45;1.15;;;;;;;;;;4975265;28;20026;-76
2021/08/16 02:19:52;;;;;;;3.33;1.00;;;;;;;;;;4975452;28;20030;-76
2021/08/16 02:22:19;;;;;;;4.18;1.48;;;;;;;;;;4975388;28;20077;-76
2021/08/16 02:24:45;;;;;;;4.53;1.30;;;;;;;;;;4975060;28;20416;-76
2021/08/16 02:27:11;;;;;;;3.42;1.50;;;;;;;;;;4973592;28;20031;-76
2021/08/16 02:29:37;;;;;;;4.57;1.23;;;;;;;;;;4974825;28;20027;-76
2021/08/16 02:32:03;;;;;;;3.35;1.00;;;;;;;;;;4973288;28;20117;-76
2021/08/16 02:34:29;;;;;;;3.88;1.20;;;;;;;;;;4973613;28;20372;-76
2021/08/16 02:36:56;;;;;;;3.53;0.93;;;;;;;;;;4974623;28;20093;-76
2021/08/16 02:39:21;;;;;;;3.25;1.33;;;;;;;;;;4975205;28;20105;-76
2021/08/16 02:41:48;;;;;;;2.90;1.10;;;;;;;;;;4974946;28;20170;-76
2021/08/16 02:44:14;;;;;;;3.10;1.13;;;;;;;;;;4974174;28;20561;-75
2021/08/16 02:46:40;;;;;;;4.28;1.10;;;;;;;;;;4974663;28;20019;-76
2021/08/16 02:49:06;;;;;;;3.55;1.05;;;;;;;;;;4973921;28;20407;-76
2021/08/16 02:51:32;;;;;;;3.78;0.85;;;;;;;;;;4974592;28;20026;-76
2021/08/16 02:53:58;;;;;;;4.97;1.73;;;;;;;;;;4974288;28;20105;-76
2021/08/16 02:56:24;;;;;;;4.75;1.27;;;;;;;;;;4974498;28;20475;-76
2021/08/16 02:58:50;;;;;;;2.78;0.85;;;;;;;;;;4973500;28;20066;-76
2021/08/16 03:01:16;;;;;;;4.43;1.25;;;;;;;;;;4974140;28;20067;-76
2021/08/16 03:03:42;;;;;;;5.30;1.30;;;;;;;;;;4973988;28;20105;-75
2021/08/16 03:06:08;;;;;;;3.17;0.90;;;;;;;;;;4973334;28;20051;-76
2021/08/16 03:08:35;;;;;;;3.35;1.20;;;;;;;;;;4974302;28;20054;-76
2021/08/16 03:11:03;;;;;;;4.20;1.02;;;;;;;;;;4973994;28;20387;-76
2021/08/16 03:13:29;;;;;;;3.65;1.15;;;;;;;;;;4974163;28;20062;-76
2021/08/16 03:15:55;;;;;;;3.95;1.10;;;;;;;;;;4973903;28;20022;-76
2021/08/16 03:18:21;;;;;;;4.78;1.20;;;;;;;;;;4974523;28;20041;-76
2021/08/16 03:20:47;;;;;;;5.32;0.90;;;;;;;;;;4974302;28;20027;-76
2021/08/16 03:23:13;;;;;;;4.32;1.02;;;;;;;;;;4973755;28;20558;-76
2021/08/16 03:25:39;;;;;;;2.88;1.25;;;;;;;;;;4973950;28;20105;-75
2021/08/16 03:28:06;;;;;;;3.60;1.10;;;;;;;;;;4973750;28;20106;-76
2021/08/16 03:30:32;;;;;;;2.50;1.10;;;;;;;;;;4973953;28;20034;-76
2021/08/16 03:32:58;;;;;;;3.13;1.00;;;;;;;;;;4973679;28;20031;-76
2021/08/16 03:35:24;;;;;;;2.92;0.80;;;;;;;;;;4973724;28;20022;-76
2021/08/16 03:37:50;;;;;;;3.28;1.20;;;;;;;;;;4974093;28;20031;-76
2021/08/16 03:40:16;;;;;;;2.60;1.20;;;;;;;;;;4973130;28;20030;-76
2021/08/16 03:42:42;;;;;;;3.78;1.30;;;;;;;;;;4973286;28;20421;-76
2021/08/16 03:45:09;;;;;;;3.03;1.00;;;;;;;;;;4972761;28;20041;-77
2021/08/16 03:47:35;;;;;;;5.05;1.20;;;;;;;;;;4973588;28;20479;-76
2021/08/16 03:50:01;;;;;;;2.72;0.90;;;;;;;;;;4973235;28;20105;-76
2021/08/16 03:52:27;;;;;;;3.53;1.02;;;;;;;;;;4973543;28;20049;-76
2021/08/16 03:54:53;;;;;;;2.72;0.98;;;;;;;;;;4971645;28;20390;-76
2021/08/16 03:57:19;;;;;;;4.93;1.45;;;;;;;;;;4973659;28;20033;-76
2021/08/16 03:59:45;;;;;;;4.65;1.20;;;;;;;;;;4973350;28;20109;-76
2021/08/16 04:02:11;;;;;;;3.95;1.20;;;;;;;;;;4973089;28;20065;-77
2021/08/16 04:04:38;;;;;;;4.85;1.17;;;;;;;;;;4973282;28;20110;-76
2021/08/16 04:07:04;;;;;;;1.95;0.98;;;;;;;;;;4972421;28;20422;-77
2021/08/16 04:09:30;;;;;;;3.53;1.27;;;;;;;;;;4973173;28;20058;-76
2021/08/16 04:11:56;;;;;;;3.72;1.20;;;;;;;;;;4972972;28;20061;-76
2021/08/16 04:14:22;;;;;;;3.03;0.95;;;;;;;;;;4973123;28;20034;-76
2021/08/16 04:16:48;;;;;;;3.35;1.15;;;;;;;;;;4972880;28;20030;-76
2021/08/16 04:19:14;;;;;;;3.10;1.20;;;;;;;;;;4971500;28;20034;-76
2021/08/16 04:21:40;;;;;;;3.28;1.20;;;;;;;;;;4972991;28;20097;-76
2021/08/16 04:24:06;;;;;;;4.13;0.93;;;;;;;;;;4972658;28;20507;-77
2021/08/16 04:26:32;;;;;;;3.50;1.20;;;;;;;;;;4971326;28;20050;-76
2021/08/16 04:28:58;;;;;;;4.03;1.10;;;;;;;;;;4971282;28;20073;-76
2021/08/16 04:31:24;;;;;;;4.65;1.77;;;;;;;;;;4972797;28;20098;-76
2021/08/16 04:33:50;;;;;;;5.13;1.60;;;;;;;;;;4972911;28;20085;-76
2021/08/16 04:36:16;;;;;;;3.72;0.98;;;;;;;;;;4972178;28;20053;-77
2021/08/16 04:38:42;;;;;;;5.82;1.17;;;;;;;;;;4972720;28;20069;-76
2021/08/16 04:41:08;;;;;;;3.05;1.00;;;;;;;;;;4972440;28;20031;-76
2021/08/16 04:43:34;;;;;;;5.13;1.30;;;;;;;;;;4972589;28;20610;-76
2021/08/16 04:46:00;;;;;;;3.67;1.02;;;;;;;;;;4971885;28;20031;-76
2021/08/16 04:48:26;;;;;;;6.15;1.23;;;;;;;;;;4971359;28;20027;-77
2021/08/16 04:50:52;;;;;;;3.10;0.80;;;;;;;;;;4971188;28;20426;-76
2021/08/16 04:53:18;;;;;;;4.10;1.40;;;;;;;;;;4971924;28;20545;-76
2021/08/16 04:55:44;;;;;;;6.00;1.23;;;;;;;;;;4972065;28;20030;-76
2021/08/16 04:58:10;;;;;;;3.45;1.20;;;;;;;;;;4972254;28;20387;-76
2021/08/16 05:00:36;;;;;;;3.50;1.02;;;;;;;;;;4971907;28;20102;-75
2021/08/16 05:03:02;;;;;;;4.72;1.35;;;;;;;;;;4972049;28;20118;-76
2021/08/16 05:05:32;;;;;;;3.05;1.10;;;;;;;;;;4972133;28;20035;-75
2021/08/16 05:07:59;;;;;;;5.07;1.00;;;;;;;;;;4972176;28;20063;-76
2021/08/16 05:10:26;;;;;;;3.80;1.10;;;;;;;;;;4972362;28;20065;-76
2021/08/16 05:12:53;;;;;;;3.20;0.85;;;;;;;;;;4972359;28;20058;-76
2021/08/16 05:15:19;;;;;;;2.30;1.02;;;;;;;;;;4970703;28;20081;-76
2021/08/16 05:17:46;;;;;;;2.40;1.00;;;;;;;;;;4971860;28;20190;-76
2021/08/16 05:20:12;;;;;;;3.00;1.00;;;;;;;;;;4972089;28;20460;-75
2021/08/16 05:22:40;;;;;;;4.15;1.10;;;;;;;;;;4972270;28;20493;-75
2021/08/16 05:25:06;;;;;;;2.83;1.00;;;;;;;;;;4971677;28;20035;-76
2021/08/16 05:27:32;;;;;;;3.67;1.38;;;;;;;;;;4972249;28;20031;-76
2021/08/16 05:29:58;;;;;;;4.18;1.20;;;;;;;;;;4971838;28;20031;-75
2021/08/16 05:32:24;;;;;;;1.83;0.88;;;;;;;;;;4972232;28;20106;-76
2021/08/16 05:34:50;;;;;;;6.32;1.38;;;;;;;;;;4972160;28;20038;-76
2021/08/16 05:37:16;;;;;;;2.90;0.95;;;;;;;;;;4970749;28;20030;-76
2021/08/16 05:39:42;;;;;;;2.95;0.93;;;;;;;;;;4972108;28;20057;-76
2021/08/16 05:42:08;;;;;;;3.30;0.93;;;;;;;;;;4971622;28;20368;-76
2021/08/16 05:44:35;;;;;;;2.88;1.10;;;;;;;;;;4971945;28;20431;-76
2021/08/16 05:47:02;;;;;;;3.55;1.20;;;;;;;;;;4971406;28;20069;-76
2021/08/16 05:49:28;;;;;;;3.10;0.80;;;;;;;;;;4970680;28;20029;-76
2021/08/16 05:51:55;;;;;;;5.38;1.45;;;;;;;;;;4971787;28;20041;-75
2021/08/16 05:54:22;;;;;;;3.20;1.10;;;;;;;;;;4972242;28;20019;-76
2021/08/16 05:56:48;;;;;;;3.53;1.08;;;;;;;;;;4970384;28;20098;-76
2021/08/16 05:59:14;;;;;;;3.22;1.00;;;;;;;;;;4971672;28;20415;-76
2021/08/16 06:01:40;;;;;;;5.72;1.67;;;;;;;;;;4971840;28;20026;-76
2021/08/16 06:04:06;;;;;;;3.75;1.77;;;;;;;;;;4970782;28;20418;-76
2021/08/16 06:06:33;;;;;;;1.63;0.70;;;;;;;;;;4973747;28;20039;-75
2021/08/16 06:08:59;;;;;;;4.25;1.23;;;;;;;;;;4975060;28;20023;-75
2021/08/16 06:11:25;;;;;;;3.05;1.30;;;;;;;;;;4975190;28;20035;-76
2021/08/16 06:13:51;;;;;;;2.70;0.93;;;;;;;;;;4974229;28;20049;-75
2021/08/16 06:16:18;;;;;;;3.97;1.23;;;;;;;;;;4974258;28;20039;-75
2021/08/16 06:18:44;;;;;;;2.72;0.80;;;;;;;;;;4974642;28;20034;-75
2021/08/16 06:21:10;;;;;;;3.50;1.17;;;;;;;;;;4974090;28;20078;-76
2021/08/16 06:23:36;;;;;;;3.00;0.85;;;;;;;;;;4975069;28;20447;-76
2021/08/16 06:26:03;;;;;;;3.53;0.90;;;;;;;;;;4974813;28;20023;-75
2021/08/16 06:28:29;;;;;;;4.97;1.40;;;;;;;;;;4975059;28;20023;-76
2021/08/16 06:30:55;;;;;;;4.63;1.50;;;;;;;;;;4971553;28;20123;-75
2021/08/16 06:33:21;;;;;;;2.72;0.90;;;;;;;;;;4973566;28;20059;-76
2021/08/16 06:35:48;;;;;;;3.83;1.20;;;;;;;;;;4974413;28;20110;-74
2021/08/16 06:38:25;;;;;;;2.42;0.95;;;;;;;;;;4973724;28;20027;-74
2021/08/16 06:40:52;;;;;;;3.38;1.15;;;;;;;;;;4974308;28;20027;-74
2021/08/16 06:43:18;;;;;;;3.70;1.13;;;;;;;;;;4968747;28;20042;-74
2021/08/16 06:45:44;;;;;;;4.40;1.00;;;;;;;;;;4967790;28;20046;-74
2021/08/16 06:48:11;;;;;;;3.15;1.25;;;;;;;;;;4974196;28;20023;-75
2021/08/16 06:50:38;;;;;;;2.72;1.20;;;;;;;;;;4974729;28;20506;-74
2021/08/16 06:53:04;;;;;;;4.00;1.10;;;;;;;;;;4973568;28;20030;-75
2021/08/16 06:55:30;;;;;;;5.50;1.30;;;;;;;;;;4974557;28;20019;-76
2021/08/16 06:57:56;;;;;;;3.63;1.35;;;;;;;;;;4974307;28;20038;-75
2021/08/16 07:00:22;;;;;;;3.13;1.02;;;;;;;;;;4973612;28;20026;-76
2021/08/16 07:02:48;;;;;;;4.75;1.00;;;;;;;;;;4973883;28;20030;-75
2021/08/16 07:05:14;;;;;;;3.00;1.00;;;;;;;;;;4973073;28;20076;-75
2021/08/16 07:07:40;;;;;;;3.65;1.90;;;;;;;;;;4964484;28;20029;-74
2021/08/16 07:10:07;;;;;;;4.50;2.30;;;;;;;;;;4971946;28;20023;-76
2021/08/16 07:12:33;;;;;;;7.40;2.15;;;;;;;;;;4955800;28;20035;-75
2021/08/16 07:15:00;;;;;;;6.03;2.80;;;;;;;;;;4972776;28;20078;-74
2021/08/16 07:17:26;;;;;;;5.45;2.35;;;;;;;;;;4972950;28;20548;-75
2021/08/16 07:19:52;;;;;;;3.28;1.63;;;;;;;;;;4956333;28;20395;-74
2021/08/16 07:22:18;;;;;;;4.63;1.60;;;;;;;;;;4973463;28;20041;-74
2021/08/16 07:24:44;;;;;;;8.23;2.00;;;;;;;;;;4973998;28;20090;-75
2021/08/16 07:27:11;;;;;;;7.28;2.03;;;;;;;;;;4972227;28;20101;-75
2021/08/16 07:29:37;;;;;;;10.85;5.80;;;;;;;;;;4958286;28;20391;-75
2021/08/16 07:32:03;;;;;;;16.10;8.50;;;;;;;;;;4972162;28;20451;-75
2021/08/16 07:34:29;;;;;;;8.73;3.33;;;;;;;;;;4972917;28;20058;-75
2021/08/16 07:36:55;;;;;;;11.02;5.47;;;;;;;;;;4972128;28;20514;-75
2021/08/16 07:39:22;;;;;;;11.40;5.90;;;;;;;;;;4973774;28;20565;-76
2021/08/16 07:41:48;;;;;;;9.98;4.75;;;;;;;;;;4973362;28;20117;-74
2021/08/16 07:44:17;;;;;;;8.50;3.90;;;;;;;;;;4972830;28;20121;-74
2021/08/16 07:46:43;;;;;;;12.48;3.10;;;;;;;;;;4973632;28;20023;-75
2021/08/16 07:49:09;;;;;;;7.47;3.05;;;;;;;;;;4973264;28;20093;-75
2021/08/16 07:51:35;;;;;;;7.25;3.35;;;;;;;;;;4972654;28;20471;-76
2021/08/16 07:54:01;;;;;;;6.18;2.72;;;;;;;;;;4955777;28;20031;-76
2021/08/16 07:56:27;;;;;;;7.38;3.05;;;;;;;;;;4973108;28;20399;-76
2021/08/16 07:58:53;;;;;;;7.13;2.90;;;;;;;;;;4971264;28;20046;-74
2021/08/16 08:01:19;;;;;;;6.38;2.97;;;;;;;;;;4967708;28;20038;-75
2021/08/16 08:03:45;;;;;;;8.25;2.95;;;;;;;;;;4972901;28;20146;-75
2021/08/16 08:06:11;;;;;;;6.00;2.60;;;;;;;;;;4966061;28;20027;-74
2021/08/16 08:08:37;;;;;;;6.90;2.60;;;;;;;;;;4953871;29;20098;-74
2021/08/16 08:11:03;;;;;;;5.28;1.90;;;;;;;;;;4953548;29;20080;-75
2021/08/16 08:13:29;;;;;;;5.68;2.63;;;;;;;;;;4969993;28;20034;-75
2021/08/16 08:15:56;;;;;;;7.93;2.25;;;;;;;;;;4972845;28;20062;-75
2021/08/16 08:18:22;;;;;;;9.43;2.47;;;;;;;;;;4973257;28;20023;-75
2021/08/16 08:20:48;;;;;;;5.15;2.20;;;;;;;;;;4972736;28;20046;-75
2021/08/16 08:23:14;;;;;;;8.85;2.47;;;;;;;;;;4972179;28;20129;-75
2021/08/16 08:25:40;;;;;;;3.58;2.00;;;;;;;;;;4972605;28;20467;-75
2021/08/16 08:28:15;;;;;;;4.97;1.90;;;;;;;;;;4972363;28;20027;-75
2021/08/16 08:30:45;;;;;;;5.55;1.90;;;;;;;;;;4972535;28;20387;-75
2021/08/16 08:33:15;;;;;;;3.78;1.63;;;;;;;;;;4954644;28;20027;-74
2021/08/16 08:35:44;;;;;;;8.43;1.95;;;;;;;;;;4972246;28;20031;-74
2021/08/16 08:38:10;;;;;;;8.73;2.33;;;;;;;;;;4962761;28;20494;-74
2021/08/16 08:40:37;;;;;;;4.05;1.50;;;;;;;;;;4964877;28;20171;-74
2021/08/16 08:43:05;;;;;;;3.28;1.50;;;;;;;;;;4970684;28;20030;-74
2021/08/16 08:45:31;;;;;;;6.25;1.80;;;;;;;;;;4971924;28;20084;-74
2021/08/16 08:47:57;;;;;;;8.80;1.75;;;;;;;;;;4955044;28;20026;-74
2021/08/16 08:50:23;;;;;;;8.38;2.10;;;;;;;;;;4972580;28;20394;-74
2021/08/16 08:52:50;;;;;;;3.95;1.50;;;;;;;;;;4967061;28;20019;-74
2021/08/16 08:55:16;;;;;;;4.00;1.50;;;;;;;;;;4967805;28;20071;-74
2021/08/16 08:57:42;;;;;;;3.90;1.67;;;;;;;;;;4972507;28;20608;-74
2021/08/16 09:00:16;;;;;;;6.05;2.30;;;;;;;;;;4971738;28;20498;-76
2021/08/16 09:02:42;;;;;;;4.47;2.25;;;;;;;;;;4969718;28;20030;-75
2021/08/16 09:05:08;;;;;;;6.70;2.90;;;;;;;;;;4965684;28;20023;-75
2021/08/16 09:07:35;;;;;;;6.82;2.40;;;;;;;;;;4972009;28;20073;-74
2021/08/16 09:10:02;;;;;;;4.13;2.15;;;;;;;;;;4971795;28;20022;-76
2021/08/16 09:12:34;;;;;;;7.50;2.50;;;;;;;;;;4972238;28;20403;-76
2021/08/16 09:15:01;;;;;;;7.20;2.33;;;;;;;;;;4971497;28;20442;-75
2021/08/16 09:17:36;;;;;;;7.95;2.80;;;;;;;;;;4971524;28;20114;-74
2021/08/16 09:20:02;;;;;;;5.30;2.40;;;;;;;;;;4969224;28;20027;-75
2021/08/16 09:22:33;;;;;;;5.45;2.50;;;;;;;;;;4991398;28;20034;-75
2021/08/16 09:25:00;;;;;;;6.97;1.33;;;;;;;;;;4976835;28;20066;-76
2021/08/16 09:27:26;;;;;;;4.57;2.28;;;;;;;;;;4959011;28;20106;-75
2021/08/16 09:29:52;;;;;;;4.85;2.50;;;;;;;;;;4951527;29;20031;-75
2021/08/16 09:32:20;;;;;;;5.57;3.05;;;;;;;;;;4972175;28;20482;-76
2021/08/16 09:34:47;;;;;;;10.65;2.65;;;;;;;;;;4972117;28;20089;-75
2021/08/16 09:37:16;;;;;;;7.90;3.08;;;;;;;;;;4971690;28;20502;-75
2021/08/16 09:39:43;;;;;;;7.55;2.78;;;;;;;;;;4978132;28;20521;-76
2021/08/16 09:42:09;;;;;;;4.68;2.28;;;;;;;;;;4977753;28;20030;-76
2021/08/16 09:44:46;;;;;;;5.28;2.47;;;;;;;;;;4956912;29;20563;-76
2021/08/16 09:47:12;;;;;;;8.02;3.50;;;;;;;;;;4956372;29;20031;-76
2021/08/16 09:49:38;;;;;;;5.35;3.00;;;;;;;;;;4956492;29;20023;-76
2021/08/16 09:52:06;;;;;;;4.80;2.88;;;;;;;;;;4962458;28;20158;-76
2021/08/16 09:54:33;;;;;;;7.47;3.25;;;;;;;;;;4975148;28;20500;-76
2021/08/16 09:57:00;;;;;;;5.72;2.72;;;;;;;;;;4974179;28;20026;-76
2021/08/16 09:59:26;;;;;;;7.32;3.78;;;;;;;;;;4975526;28;20509;-76
2021/08/16 10:01:53;;;;;;;5.35;3.42;;;;;;;;;;4974400;28;20031;-76
2021/08/16 10:04:19;;;;;;;7.88;4.20;;;;;;;;;;4974411;28;20490;-76
2021/08/16 10:06:45;;;;;;;8.32;3.90;;;23.60;80.60;;;;;;4974339;28;20026;-74
2021/08/16 10:09:12;;;;;;;6.20;4.38;;;23.70;81.20;;;;;;4966427;28;20037;-74
2021/08/16 10:11:40;;;;;;;9.05;5.18;;;23.70;80.70;;;;;;4974900;28;20023;-74
2021/08/16 10:14:06;;;;;;;7.43;4.68;;;;;;;;;;4961264;28;20024;-73
2021/08/16 10:16:33;;;;;;;6.72;4.63;;;;;;;;;;4955944;29;20055;-75
2021/08/16 10:18:59;;;;;;;7.82;4.82;;;;;;;;;;4959060;28;20065;-74
2021/08/16 10:21:26;;;;;;;8.98;4.50;;;;;;;;;;4973251;28;20058;-74
2021/08/16 10:23:53;;;;;;;7.80;5.00;;;;;;;;;;4969016;28;20086;-74
2021/08/16 10:26:26;;;;;;;11.75;5.10;;;;;;;;;;4968905;28;20062;-74
2021/08/16 10:28:59;;;;;;;13.75;6.07;;;;;;;;;;4958599;28;20082;-75
2021/08/16 10:31:32;;;;;;;11.63;5.65;;;23.70;80.60;;;;;;4966608;28;20027;-75
2021/08/16 10:33:58;;;;;;;12.27;6.15;;;23.80;81.70;;;;;;4974258;28;20031;-75
2021/08/16 10:36:25;;;;;;;12.43;5.53;;;23.80;81.60;;;;;;4966602;28;20027;-75
2021/08/16 10:38:54;;;;;;;10.00;6.00;;;23.80;82.10;;;;;;4975257;28;20031;-75
2021/08/16 10:41:28;;;;;;;10.55;6.78;;;23.80;82.20;;;;;;4963533;28;20027;-76
2021/08/16 10:43:55;;;;;;;9.00;6.30;;;23.80;83.10;;;;;;4955210;29;20452;-75
2021/08/16 10:46:22;;;;;;;11.07;6.40;;;23.70;83.10;;;;;;4955527;29;20027;-76
2021/08/16 10:49:03;;;;;;;11.80;6.68;;;23.70;83.30;;;;;;4955652;29;20034;-75
2021/08/16 10:51:43;;;;;;;11.38;6.47;;;23.70;83.40;;;;;;4957862;28;20042;-75
2021/08/16 10:54:20;;;;;;;15.75;7.25;;;23.70;83.50;;;;;;4974203;28;20545;-76
2021/08/16 10:56:50;;;;;;;10.25;6.85;;;23.80;84.30;;;;;;4974715;28;20035;-75
2021/08/16 10:59:17;;;;;;;15.15;8.82;;;23.80;82.80;;;;;;4974322;28;20482;-76
2021/08/16 11:01:44;;;;;;;26.05;10.10;;;23.80;82.80;;;;;;4970778;28;20046;-74
2021/08/16 11:04:15;;;;;;;16.95;8.95;;;23.80;83.00;;;;;;4955420;29;20430;-75
2021/08/16 11:06:55;;;;;;;16.63;9.90;;;23.80;83.00;;;;;;4955122;29;20459;-76
2021/08/16 11:09:30;;;;;;;14.88;10.30;;;23.80;81.00;;;;;;4966036;28;20027;-76
2021/08/16 11:12:07;;;;;;;16.40;9.73;;;23.90;81.60;;;;;;4970601;28;20035;-77
2021/08/16 11:14:39;;;;;;;17.92;10.55;;;24.00;81.30;;;;;;4970353;28;20061;-76
2021/08/16 11:17:05;;;;;;;12.55;9.30;;;24.10;80.70;;;;;;4973992;28;20394;-76
2021/08/16 11:19:43;;;;;;;16.23;9.52;;;24.10;80.60;;;;;;4972552;28;20109;-74
2021/08/16 11:22:09;;;;;;;38.00;17.63;;;24.10;80.70;;;;;;4954125;29;20553;-74
2021/08/16 11:24:38;;;;;;;25.55;13.32;;;24.10;81.30;;;;;;4954608;28;20035;-75
2021/08/16 11:27:05;;;;;;;24.85;12.57;;;24.00;80.80;;;;;;4937173;29;20031;-75
2021/08/16 11:29:31;;;;;;;23.92;12.23;;;24.00;80.70;;;;;;4956400;28;20023;-75
2021/08/16 11:32:02;;;;;;;24.92;12.80;;;24.10;80.00;;;;;;4961546;28;20435;-76
2021/08/16 11:34:44;;;;;;;33.72;16.63;;;24.10;80.10;;;;;;4958270;28;20030;-74
2021/08/16 11:37:11;;;;;;;30.58;14.93;;;24.10;80.10;;;;;;4969812;28;20478;-75
2021/08/16 11:39:37;;;;;;;28.75;16.27;;;24.10;80.00;;;;;;4962212;28;20023;-75
2021/08/16 11:42:04;;;;;;;28.33;15.07;;;24.00;80.40;;;;;;4961837;28;20038;-75
2021/08/16 11:44:32;;;;;;;26.02;14.73;;;23.90;79.90;;;;;;4961402;28;20023;-75
2021/08/16 11:47:03;;;;;;;22.92;15.23;;;23.90;79.40;;;;;;4962916;28;20023;-75
2021/08/16 11:49:39;;;;;;;21.70;14.40;;;23.90;79.50;;;;;;4963861;28;20031;-75
2021/08/16 11:52:06;;;;;;;22.10;14.93;;;23.80;79.60;;;;;;4973176;28;20438;-75
2021/08/16 11:54:36;;;;;;;25.05;15.82;;;23.80;79.70;;;;;;4963827;28;20033;-75
2021/08/16 11:57:05;;;;;;;24.45;15.18;;;23.80;79.70;;;;;;4961252;28;20027;-74
2021/08/16 11:59:31;;;;;;;24.42;15.50;;;23.80;79.60;;;;;;4959717;28;20034;-75
2021/08/16 12:02:02;;;;;;;24.80;15.13;;;23.80;79.50;;;;;;4967203;28;20034;-75
2021/08/16 12:04:28;;;;;;;21.33;15.65;;;23.80;79.30;;;;;;4967170;28;20117;-75
2021/08/16 12:06:55;;;;;;;25.17;15.95;;;23.80;79.10;;;;;;4972551;28;20494;-74
2021/08/16 12:09:34;;;;;;;22.73;15.35;;;23.80;79.20;;;;;;4967859;28;20033;-75
2021/08/16 12:12:03;;;;;;;22.95;15.32;;;23.70;79.40;;;;;;4953367;28;20124;-76
2021/08/16 12:14:30;;;;;;;23.73;15.73;;;23.70;79.50;;;;;;4953789;28;20047;-76
2021/08/16 12:16:57;;;;;;;20.55;15.10;;;23.70;79.60;;;;;;4953555;29;20107;-76
2021/08/16 12:19:23;;;;;;;23.05;15.07;;;23.70;79.60;;;;;;4965915;28;20033;-76
2021/08/16 12:22:10;;;;;;;22.38;15.48;;;23.70;79.80;;;;;;4956000;28;20061;-76
2021/08/16 12:24:37;;;;;;;21.23;14.48;;;23.60;79.80;;;;;;4972844;28;20049;-76
2021/08/16 12:27:06;;;;;;;20.35;15.95;;;23.60;79.90;;;;;;4972742;28;20031;-76
2021/08/16 12:29:44;;;;;;;22.63;15.98;;;23.60;80.00;;;;;;4972840;28;20509;-77
2021/08/16 12:32:14;;;;;;;22.35;16.10;;;23.60;79.80;;;;;;4955247;28;20046;-76
2021/08/16 12:34:40;;;;;;;20.30;15.60;;;23.60;79.90;;;;;;4970517;28;20089;-75
2021/08/16 12:37:06;;;;;;;21.67;14.60;;;23.60;79.90;;;;;;4971943;28;20443;-75
2021/08/16 12:39:33;;;;;;;21.08;15.18;;;23.60;79.90;;;;;;4972846;28;20118;-76
2021/08/16 12:42:07;;;;;;;20.65;16.00;;;23.50;79.80;;;;;;4945475;28;20030;-76
2021/08/16 12:44:32;;;;;;;19.67;15.55;;;23.50;79.90;;;;;;4960933;28;20541;-75
2021/08/16 12:47:00;;;;;;;17.85;14.65;;;23.50;79.70;;;;;;4972359;28;20107;-76
2021/08/16 12:49:27;;;;;;;20.70;15.45;;;23.60;79.80;;;;;;4958998;28;20039;-76
2021/08/16 12:51:52;;;;;;;21.70;15.90;;;23.60;79.50;;;;;;4953247;29;20557;-75
2021/08/16 12:54:18;;;;;;;20.67;15.85;;;23.60;79.30;;;;;;4953536;29;20123;-74
2021/08/16 12:56:43;;;;;;;22.58;15.73;;;23.60;79.30;;;;;;4952045;29;20047;-74
2021/08/16 12:59:09;;;;;;;23.42;16.00;;;23.60;79.00;;;;;;4952912;29;20027;-75
2021/08/16 13:01:34;;;;;;;21.73;15.00;;;23.60;79.00;;;;;;4952984;29;20055;-75
2021/08/16 13:04:01;;;;;;;17.90;14.63;;;23.60;78.80;;;;;;4952730;29;20039;-75
2021/08/16 13:06:26;;;;;;;20.85;16.15;;;23.60;78.60;;;;;;4953093;29;20082;-75
2021/08/16 13:08:52;;;;;;;23.15;17.30;;;23.60;78.60;;;;;;4955309;28;20038;-75
2021/08/16 13:11:18;;;;;;;21.05;16.00;;;23.60;78.30;;;;;;4958445;28;20027;-75
2021/08/16 13:13:44;;;;;;;20.90;15.23;;;23.50;78.10;;;;;;4956845;28;20414;-74
2021/08/16 13:16:10;;;;;;;21.20;15.73;;;23.50;78.20;;;;;;4956853;29;20031;-75
2021/08/16 13:18:36;;;;;;;21.60;16.38;;;23.50;77.90;;;;;;4957007;29;20399;-75
2021/08/16 13:21:07;;;;;;;23.17;15.93;;;23.50;78.00;;;;;;4968587;28;20118;-75
2021/08/16 13:23:35;;;;;;;20.00;14.85;;;23.50;77.80;;;;;;4956933;29;20039;-74
2021/08/16 13:26:01;;;;;;;21.38;15.00;;;23.50;77.60;;;;;;4956779;29;20019;-75
2021/08/16 13:28:26;;;;;;;21.17;15.30;;;23.50;77.60;;;;;;4956928;29;20035;-75
2021/08/16 13:30:52;;;;;;;21.40;15.80;;;23.50;77.70;;;;;;4956686;29;20391;-75
2021/08/16 13:33:20;;;;;;;22.25;15.13;;;23.50;77.40;;;;;;4957062;29;20391;-74
2021/08/16 13:35:46;;;;;;;20.98;16.02;;;23.50;77.50;;;;;;4956807;29;20558;-75
2021/08/16 13:38:12;;;;;;;18.30;13.68;;;23.50;77.50;;;;;;4956488;29;20867;-75
2021/08/16 13:40:39;;;;;;;19.02;14.57;;;23.50;77.30;;;;;;4956665;29;20027;-75
2021/08/16 13:43:05;;;;;;;21.00;15.73;;;23.60;77.20;;;;;;4954949;28;20495;-75
2021/08/16 13:45:31;;;;;;;19.73;15.15;;;23.60;76.80;;;;;;4956578;29;20467;-75
2021/08/16 13:47:58;;;;;;;17.83;14.35;;;23.60;76.80;;;;;;4955315;29;20034;-75
2021/08/16 13:50:24;;;;;;;20.63;15.02;;;23.50;76.60;;;;;;4955152;29;20058;-75
2021/08/16 13:52:50;;;;;;;20.23;14.25;;;23.50;76.70;;;;;;4959458;28;20027;-75
2021/08/16 13:55:15;;;;;;;17.95;14.15;;;23.40;76.60;;;;;;4956172;29;20027;-75
2021/08/16 13:57:41;;;;;;;19.20;14.63;;;23.40;76.50;;;;;;4955150;29;20034;-75
2021/08/16 14:00:07;;;;;;;20.15;15.82;;;23.40;76.80;;;;;;4954826;29;20447;-75
2021/08/16 14:02:33;;;;;;;21.13;15.00;;;23.40;76.70;;;;;;4957087;28;20032;-75